createdAt,value
2023-02-22T00:02:25.572Z,4.70
2023-02-22T00:04:54.516Z,4.90
2023-02-22T00:07:23.952Z,4.80
2023-02-22T00:09:52.771Z,5.20
2023-02-22T00:12:21.999Z,4.50
2023-02-22T00:14:51.603Z,4.70
2023-02-22T00:17:20.746Z,4.70
2023-02-22T00:19:50.488Z,4.30
2023-02-22T00:22:21.216Z,4.90
2023-02-22T00:24:53.001Z,4.50
2023-02-22T00:27:21.706Z,4.70
2023-02-22T00:29:51.270Z,5.20
2023-02-22T00:32:20.515Z,4.80
2023-02-22T00:34:52.958Z,5.20
2023-02-22T00:37:22.191Z,5.50
2023-02-22T00:39:51.656Z,5.10
2023-02-22T00:42:20.659Z,5.20
2023-02-22T00:44:49.256Z,5.50
2023-02-22T00:47:17.717Z,5.20
2023-02-22T00:49:46.954Z,5.70
2023-02-22T00:52:16.692Z,5.30
2023-02-22T00:54:46.423Z,4.80
2023-02-22T00:57:17.023Z,4.90
2023-02-22T00:59:49.084Z,4.90
2023-02-22T01:02:19.152Z,5.00
2023-02-22T01:04:49.175Z,4.80
2023-02-22T01:07:18.046Z,4.50
2023-02-22T01:09:46.620Z,5.10
2023-02-22T01:12:16.302Z,4.60
2023-02-22T01:14:45.129Z,5.50
2023-02-22T01:17:14.121Z,5.10
2023-02-22T01:19:42.772Z,5.40
2023-02-22T01:22:12.030Z,5.00
2023-02-22T01:24:41.438Z,5.10
2023-02-22T01:27:11.222Z,5.60
2023-02-22T01:29:39.761Z,5.00
2023-02-22T01:32:08.682Z,5.20
2023-02-22T01:34:38.391Z,5.50
2023-02-22T01:37:08.308Z,5.30
2023-02-22T01:39:36.814Z,4.50
2023-02-22T01:42:05.297Z,4.70
2023-02-22T01:44:36.814Z,5.50
2023-02-22T01:47:09.449Z,5.20
2023-02-22T01:49:51.024Z,4.50
2023-02-22T01:52:21.769Z,4.80
2023-02-22T01:54:56.501Z,5.10
2023-02-22T01:57:31.675Z,5.60
2023-02-22T02:00:11.662Z,5.00
2023-02-22T02:02:49.641Z,6.10
2023-02-22T02:05:24.424Z,5.80
2023-02-22T02:07:54.600Z,5.60
2023-02-22T02:10:24.700Z,5.50
2023-02-22T02:12:54.108Z,5.50
2023-02-22T02:15:25.846Z,5.40
2023-02-22T02:17:57.781Z,5.70
2023-02-22T02:21:01.387Z,5.60
2023-02-22T02:23:57.821Z,5.20
2023-02-22T02:26:58.323Z,5.30
2023-02-22T02:30:04.424Z,5.40
2023-02-22T02:32:59.048Z,4.80
2023-02-22T02:36:00.233Z,4.80
2023-02-22T02:38:40.087Z,5.10
2023-02-22T02:41:24.295Z,5.10
2023-02-22T02:44:02.884Z,5.90
2023-02-22T02:46:49.036Z,6.20
2023-02-22T02:49:25.373Z,5.80
2023-02-22T02:51:56.972Z,5.90
2023-02-22T02:54:28.026Z,6.60
2023-02-22T02:56:58.637Z,6.50
2023-02-22T02:59:37.669Z,6.50
2023-02-22T03:02:27.555Z,5.30
2023-02-22T03:05:13.460Z,5.70
2023-02-22T03:07:54.300Z,4.60
2023-02-22T03:10:46.238Z,4.80
2023-02-22T03:13:36.622Z,4.80
2023-02-22T03:16:17.632Z,4.40
2023-02-22T03:19:06.472Z,5.00
2023-02-22T03:21:47.231Z,4.90
2023-02-22T03:24:42.862Z,5.10
2023-02-22T03:27:23.522Z,5.30
2023-02-22T03:30:01.005Z,5.30
2023-02-22T03:32:37.880Z,5.20
2023-02-22T03:35:15.525Z,5.30
2023-02-22T03:37:49.183Z,5.10
2023-02-22T03:40:26.608Z,5.40
2023-02-22T03:43:05.152Z,5.70
2023-02-22T03:45:37.132Z,6.10
2023-02-22T03:48:38.340Z,4.90
2023-02-22T03:51:07.844Z,5.60
2023-02-22T03:53:37.673Z,5.60
2023-02-22T03:56:11.860Z,5.60
2023-02-22T03:58:44.551Z,5.40
2023-02-22T04:01:14.082Z,5.10
2023-02-22T04:03:43.382Z,4.50
2023-02-22T04:06:12.369Z,5.10
2023-02-22T04:08:41.080Z,4.90
2023-02-22T04:11:09.421Z,4.80
2023-02-22T04:13:38.519Z,5.20
2023-02-22T04:16:07.597Z,4.70
2023-02-22T04:18:37.222Z,4.90
2023-02-22T04:21:06.366Z,4.90
2023-02-22T04:23:38.602Z,4.60
2023-02-22T04:26:07.093Z,5.00
2023-02-22T04:28:35.453Z,4.60
2023-02-22T04:31:11.588Z,5.30
2023-02-22T04:33:40.477Z,5.30
2023-02-22T04:36:11.159Z,5.70
2023-02-22T04:38:40.408Z,4.90
2023-02-22T04:41:08.897Z,5.70
2023-02-22T04:43:37.198Z,5.40
2023-02-22T04:46:31.774Z,6.10
2023-02-22T04:49:00.483Z,5.50
2023-02-22T04:51:32.179Z,5.50
2023-02-22T04:54:03.939Z,5.10
2023-02-22T04:56:35.116Z,5.40
2023-02-22T04:59:03.943Z,5.60
2023-02-22T05:01:34.132Z,6.20
2023-02-22T05:04:04.371Z,6.00
2023-02-22T05:06:33.145Z,6.00
2023-02-22T05:09:01.949Z,6.30
2023-02-22T05:11:30.367Z,6.10
2023-02-22T05:13:58.791Z,5.90
2023-02-22T05:16:27.298Z,6.10
2023-02-22T05:18:56.472Z,6.10
2023-02-22T05:21:25.260Z,6.40
2023-02-22T05:23:53.512Z,5.30
2023-02-22T05:26:22.323Z,5.00
2023-02-22T05:28:51.337Z,5.10
2023-02-22T05:31:20.419Z,5.00
2023-02-22T05:33:49.418Z,4.40
2023-02-22T05:36:18.017Z,5.10
2023-02-22T05:38:46.583Z,5.00
2023-02-22T05:41:15.652Z,5.00
2023-02-22T05:43:44.740Z,5.60
2023-02-22T05:46:14.401Z,5.20
2023-02-22T05:48:43.714Z,5.30
2023-02-22T05:51:12.779Z,5.70
2023-02-22T05:53:42.747Z,5.30
2023-02-22T05:56:11.194Z,5.60
2023-02-22T05:58:39.710Z,5.40
2023-02-22T06:01:08.511Z,5.30
2023-02-22T06:03:37.216Z,5.70
2023-02-22T06:06:05.611Z,5.30
2023-02-22T06:08:34.806Z,4.90
2023-02-22T06:11:03.815Z,5.90
2023-02-22T06:13:34.495Z,5.50
2023-02-22T06:16:03.716Z,4.50
2023-02-22T06:18:32.044Z,4.50
2023-02-22T06:21:01.390Z,4.40
2023-02-22T06:23:29.684Z,4.40
2023-02-22T06:25:58.540Z,4.40
2023-02-22T06:28:27.478Z,4.10
2023-02-22T06:30:55.850Z,4.50
2023-02-22T06:33:24.814Z,4.50
2023-02-22T06:35:53.382Z,4.00
2023-02-22T06:38:24.414Z,4.40
2023-02-22T06:40:52.704Z,4.00
2023-02-22T06:43:22.604Z,4.60
2023-02-22T06:45:52.656Z,4.30
2023-02-22T06:48:21.522Z,4.40
2023-02-22T06:50:50.290Z,4.90
2023-02-22T06:53:18.809Z,4.10
2023-02-22T06:55:47.408Z,4.00
2023-02-22T06:58:16.248Z,3.90
2023-02-22T07:00:44.926Z,4.50
2023-02-22T07:03:14.512Z,4.30
2023-02-22T07:05:43.270Z,3.70
2023-02-22T07:08:12.634Z,4.50
2023-02-22T07:10:41.446Z,4.00
2023-02-22T07:13:10.169Z,4.00
2023-02-22T07:15:39.124Z,4.50
2023-02-22T07:18:08.470Z,4.50
2023-02-22T07:20:37.905Z,4.70
2023-02-22T07:23:07.005Z,5.80
2023-02-22T07:25:36.051Z,4.00
2023-02-22T07:28:04.676Z,35.20
2023-02-22T07:30:34.580Z,4.10
2023-02-22T07:33:05.743Z,3.90
2023-02-22T07:35:38.519Z,4.20
2023-02-22T07:38:10.788Z,4.00
2023-02-22T07:40:40.128Z,3.90
2023-02-22T07:43:23.242Z,4.00
2023-02-22T07:45:56.339Z,4.00
2023-02-22T07:48:28.334Z,3.90
2023-02-22T07:50:58.017Z,3.70
2023-02-22T07:53:30.667Z,5.70
2023-02-22T07:56:03.044Z,4.60
2023-02-22T07:58:33.404Z,3.10
2023-02-22T08:01:05.092Z,4.20
2023-02-22T08:03:36.854Z,3.60
2023-02-22T08:06:08.266Z,3.40
2023-02-22T08:08:37.981Z,4.70
2023-02-22T08:11:07.661Z,3.90
2023-02-22T08:13:37.820Z,3.60
2023-02-22T08:16:07.481Z,3.10
2023-02-22T08:18:38.798Z,5.50
2023-02-22T08:21:09.202Z,4.00
2023-02-22T08:23:39.064Z,3.70
2023-02-22T08:26:10.598Z,3.80
2023-02-22T08:28:39.728Z,5.10
2023-02-22T08:31:09.308Z,3.50
2023-02-22T08:33:38.208Z,3.70
2023-02-22T08:36:07.276Z,2.90
2023-02-22T08:38:36.215Z,2.70
2023-02-22T08:41:05.166Z,2.70
2023-02-22T08:43:34.618Z,2.90
2023-02-22T08:46:03.661Z,2.90
2023-02-22T08:48:33.091Z,2.70
2023-02-22T08:51:04.727Z,3.30
2023-02-22T08:53:33.764Z,4.30
2023-02-22T08:56:05.953Z,3.20
2023-02-22T08:58:34.182Z,3.00
2023-02-22T09:01:02.693Z,5.40
2023-02-22T09:03:31.183Z,3.70
2023-02-22T09:06:00.036Z,3.50
2023-02-22T09:08:28.761Z,3.40
2023-02-22T09:10:57.190Z,4.40
2023-02-22T09:13:28.422Z,3.20
2023-02-22T09:15:56.954Z,2.90
2023-02-22T09:18:39.030Z,4.10
2023-02-22T09:21:12.332Z,3.50
2023-02-22T09:23:42.016Z,4.00
2023-02-22T09:26:11.329Z,4.20
2023-02-22T09:28:41.388Z,3.90
2023-02-22T09:31:10.636Z,4.70
2023-02-22T09:33:42.834Z,4.50
2023-02-22T09:36:12.550Z,4.10
2023-02-22T09:38:41.866Z,3.30
2023-02-22T09:41:16.950Z,3.40
2023-02-22T09:43:52.355Z,3.80
2023-02-22T09:46:31.085Z,3.40
2023-02-22T09:49:23.124Z,3.20
2023-02-22T09:52:04.246Z,3.10
2023-02-22T09:54:41.845Z,3.30
2023-02-22T09:57:20.613Z,3.30
2023-02-22T10:00:15.902Z,4.00
2023-02-22T10:02:57.882Z,3.50
2023-02-22T10:05:40.528Z,2.90
2023-02-22T10:08:19.316Z,3.60
2023-02-22T10:11:00.611Z,4.00
2023-02-22T10:13:55.745Z,3.90
2023-02-22T10:16:50.830Z,4.70
2023-02-22T10:19:42.763Z,4.10
2023-02-22T10:22:24.559Z,4.10
2023-02-22T10:25:05.168Z,2.70
2023-02-22T10:27:36.374Z,3.00
2023-02-22T10:30:33.954Z,3.60
2023-02-22T10:33:16.274Z,3.10
2023-02-22T10:35:47.163Z,3.60
2023-02-22T10:38:27.288Z,2.70
2023-02-22T10:41:02.318Z,2.70
2023-02-22T10:43:33.403Z,3.50
2023-02-22T10:46:07.648Z,2.90
2023-02-22T10:48:38.892Z,2.70
2023-02-22T10:51:09.753Z,2.40
2023-02-22T10:53:38.815Z,2.80
2023-02-22T10:56:15.444Z,4.30
2023-02-22T10:58:47.152Z,3.20
2023-02-22T11:01:28.236Z,3.50
2023-02-22T11:04:14.045Z,4.10
2023-02-22T11:09:19.340Z,2.20
2023-02-22T11:11:50.016Z,3.40
2023-02-22T11:14:31.190Z,3.40
2023-02-22T11:17:02.159Z,3.40
2023-02-22T11:19:33.082Z,3.60
2023-02-22T11:22:19.748Z,2.90
2023-02-22T11:24:59.532Z,3.50
2023-02-22T11:27:38.812Z,3.50
2023-02-22T11:30:16.932Z,2.80
2023-02-22T11:32:49.654Z,2.80
2023-02-22T11:35:38.327Z,3.50
2023-02-22T11:38:23.100Z,2.90
2023-02-22T11:41:29.379Z,3.60
2023-02-22T11:44:21.444Z,2.50
2023-02-22T11:46:51.698Z,3.70
2023-02-22T11:49:20.755Z,2.00
2023-02-22T11:52:13.903Z,2.00
2023-02-22T11:55:02.052Z,3.50
2023-02-22T11:58:04.881Z,1.70
2023-02-22T12:00:51.565Z,3.30
2023-02-22T12:03:36.049Z,3.30
2023-02-22T12:06:08.498Z,10.30
2023-02-22T12:09:03.211Z,6.70
2023-02-22T12:11:59.243Z,3.10
2023-02-22T12:14:36.959Z,2.60
2023-02-22T12:17:26.803Z,2.90
2023-02-22T12:20:06.997Z,2.20
2023-02-22T12:22:40.176Z,3.20
2023-02-22T12:25:23.034Z,2.90
2023-02-22T12:28:24.721Z,2.30
2023-02-22T12:31:08.005Z,2.70
2023-02-22T12:33:53.435Z,4.10
2023-02-22T12:36:29.155Z,2.50
2023-02-22T12:39:07.481Z,2.70
2023-02-22T12:41:45.328Z,3.40
2023-02-22T12:44:21.981Z,3.20
2023-02-22T12:46:55.292Z,3.60
2023-02-22T12:49:48.412Z,3.80
2023-02-22T12:52:46.885Z,3.00
2023-02-22T12:55:23.707Z,4.00
2023-02-22T12:58:31.555Z,2.40
2023-02-22T13:01:18.901Z,3.40
2023-02-22T13:03:49.442Z,3.90
2023-02-22T13:06:30.387Z,4.50
2023-02-22T13:08:59.437Z,2.70
2023-02-22T13:11:54.054Z,3.20
2023-02-22T13:14:50.715Z,4.50
2023-02-22T13:17:40.881Z,3.60
2023-02-22T13:20:27.120Z,3.90
2023-02-22T13:23:12.424Z,3.50
2023-02-22T13:25:50.297Z,4.00
2023-02-22T13:28:42.593Z,3.70
2023-02-22T13:31:39.982Z,2.00
2023-02-22T13:34:22.131Z,4.50
2023-02-22T13:37:30.466Z,4.00
2023-02-22T13:40:14.021Z,3.30
2023-02-22T13:42:51.206Z,4.10
2023-02-22T13:45:44.583Z,3.20
2023-02-22T13:48:13.122Z,3.60
2023-02-22T13:50:50.811Z,3.30
2023-02-22T13:53:27.584Z,3.00
2023-02-22T13:56:00.489Z,3.10
2023-02-22T13:58:30.386Z,1.90
2023-02-22T14:01:00.369Z,3.70
2023-02-22T14:03:41.347Z,3.20
2023-02-22T14:06:31.755Z,4.30
2023-02-22T14:09:01.610Z,1.80
2023-02-22T14:11:33.532Z,3.00
2023-02-22T14:14:01.847Z,3.60
2023-02-22T14:16:32.142Z,3.50
2023-02-22T14:19:23.921Z,4.00
2023-02-22T14:22:05.662Z,2.20
2023-02-22T14:24:47.250Z,4.20
2023-02-22T14:27:19.960Z,3.40
2023-02-22T14:29:55.184Z,3.60
2023-02-22T14:35:25.491Z,3.20
2023-02-22T14:37:59.855Z,3.80
2023-02-22T14:40:36.562Z,5.00
2023-02-22T14:43:12.940Z,3.70
2023-02-22T14:45:49.908Z,5.20
2023-02-22T14:48:39.640Z,3.90
2023-02-22T14:51:29.983Z,3.80
2023-02-22T14:54:25.705Z,3.20
2023-02-22T14:57:15.136Z,4.30
2023-02-22T14:59:59.906Z,4.30
2023-02-22T15:02:38.979Z,3.10
2023-02-22T15:05:08.226Z,3.70
2023-02-22T15:07:36.710Z,4.10
2023-02-22T15:10:07.954Z,2.60
2023-02-22T15:12:36.430Z,4.80
2023-02-22T15:15:23.089Z,3.20
2023-02-22T15:17:57.261Z,3.90
2023-02-22T15:20:35.082Z,7.10
2023-02-22T15:23:04.552Z,6.70
2023-02-22T15:25:37.773Z,3.50
2023-02-22T15:28:09.936Z,3.90
2023-02-22T15:30:39.265Z,3.30
2023-02-22T15:33:24.963Z,3.80
2023-02-22T15:35:57.002Z,3.80
2023-02-22T15:38:30.933Z,2.60
2023-02-22T15:41:05.889Z,2.70
2023-02-22T15:43:35.258Z,4.40
2023-02-22T15:46:07.018Z,3.20
2023-02-22T15:48:37.783Z,3.00
2023-02-22T15:51:14.209Z,3.60
2023-02-22T15:53:48.938Z,4.30
2023-02-22T15:58:49.201Z,4.30
2023-02-22T16:01:19.829Z,4.50
2023-02-22T16:03:52.261Z,5.00
2023-02-22T16:06:29.691Z,6.10
2023-02-22T16:09:01.525Z,7.20
2023-02-22T16:11:40.722Z,6.50
2023-02-22T16:14:28.508Z,6.40
2023-02-22T16:17:30.867Z,5.60
2023-02-22T16:20:12.045Z,5.90
2023-02-22T16:22:49.546Z,5.20
2023-02-22T16:25:18.471Z,5.50
2023-02-22T16:27:50.584Z,5.90
2023-02-22T16:30:24.680Z,5.80
2023-02-22T16:32:56.438Z,6.00
2023-02-22T16:35:29.217Z,7.40
2023-02-22T16:38:06.864Z,8.10
2023-02-22T16:40:44.630Z,7.90
2023-02-22T16:43:18.228Z,8.40
2023-02-22T16:45:47.131Z,8.70
2023-02-22T16:48:26.887Z,9.10
2023-02-22T16:51:00.659Z,9.60
2023-02-22T16:53:32.845Z,11.00
2023-02-22T16:56:05.880Z,13.20
2023-02-22T16:58:39.039Z,16.10
2023-02-22T17:01:07.726Z,15.30
2023-02-22T17:03:36.140Z,15.30
2023-02-22T17:06:05.471Z,16.90
2023-02-22T17:08:33.958Z,16.50
2023-02-22T17:11:03.252Z,14.70
2023-02-22T17:13:31.927Z,11.30
2023-02-22T17:16:00.985Z,10.70
2023-02-22T17:18:34.240Z,13.10
2023-02-22T17:21:03.973Z,12.40
2023-02-22T17:23:33.709Z,10.80
2023-02-22T17:26:04.116Z,11.20
2023-02-22T17:28:32.760Z,10.40
2023-02-22T17:31:02.325Z,9.80
2023-02-22T17:33:33.944Z,10.00
2023-02-22T17:36:05.310Z,10.60
2023-02-22T17:38:35.318Z,10.10
2023-02-22T17:41:03.854Z,11.10
2023-02-22T17:43:32.546Z,10.70
2023-02-22T17:46:08.101Z,14.90
2023-02-22T17:51:08.239Z,9.90
2023-02-22T17:53:37.950Z,9.10
2023-02-22T17:56:09.116Z,10.80
2023-02-22T17:58:38.464Z,11.70
2023-02-22T18:01:07.437Z,10.50
2023-02-22T18:03:39.824Z,10.30
2023-02-22T18:06:08.744Z,11.10
2023-02-22T18:08:39.391Z,10.70
2023-02-22T18:11:08.310Z,13.90
2023-02-22T18:13:37.731Z,13.40
2023-02-22T18:16:06.494Z,13.00
2023-02-22T18:18:34.971Z,13.00
2023-02-22T18:21:04.405Z,12.70
2023-02-22T18:23:33.790Z,13.70
2023-02-22T18:26:23.055Z,13.20
2023-02-22T18:28:51.718Z,14.30
2023-02-22T18:31:22.888Z,13.90
2023-02-22T18:33:53.605Z,15.40
2023-02-22T18:36:23.459Z,16.90
2023-02-22T18:38:54.601Z,16.70
2023-02-22T18:41:26.041Z,17.50
2023-02-22T18:43:57.674Z,16.10
2023-02-22T18:46:26.190Z,14.80
2023-02-22T18:48:56.680Z,15.40
2023-02-22T18:51:26.272Z,15.80
2023-02-22T18:54:02.023Z,15.60
2023-02-22T18:56:30.669Z,16.50
2023-02-22T18:59:01.544Z,15.10
2023-02-22T19:01:31.529Z,15.50
2023-02-22T19:04:01.032Z,16.20
2023-02-22T19:06:29.547Z,16.20
2023-02-22T19:09:01.535Z,14.10
2023-02-22T19:11:32.195Z,13.40
2023-02-22T19:14:05.140Z,14.20
2023-02-22T19:16:33.633Z,13.50
2023-02-22T19:19:02.014Z,13.90
2023-02-22T19:21:32.080Z,12.60
2023-02-22T19:24:04.691Z,13.90
2023-02-22T19:26:34.250Z,13.40
2023-02-22T19:29:08.657Z,13.20
2023-02-22T19:31:37.206Z,12.90
2023-02-22T19:34:11.568Z,14.50
2023-02-22T19:36:46.396Z,16.40
2023-02-22T19:39:16.631Z,16.60
2023-02-22T19:41:45.027Z,17.40
2023-02-22T19:44:13.688Z,16.70
2023-02-22T19:46:42.039Z,18.40
2023-02-22T19:49:11.359Z,17.00
2023-02-22T19:51:40.412Z,17.50
2023-02-22T19:54:16.270Z,18.20
2023-02-22T19:56:45.303Z,19.30
2023-02-22T19:59:14.130Z,19.20
2023-02-22T20:01:46.489Z,19.20
2023-02-22T20:04:23.289Z,19.30
2023-02-22T20:06:54.820Z,17.90
2023-02-22T20:09:38.888Z,17.80
2023-02-22T20:12:08.098Z,16.50
2023-02-22T20:14:37.971Z,17.40
2023-02-22T20:17:08.034Z,16.80
2023-02-22T20:19:37.929Z,17.10
2023-02-22T20:22:10.716Z,18.50
2023-02-22T20:24:41.950Z,18.40
2023-02-22T20:27:10.454Z,19.00
2023-02-22T20:29:39.332Z,19.70
2023-02-22T20:32:15.175Z,19.00
2023-02-22T20:34:48.118Z,19.00
2023-02-22T20:37:18.480Z,20.10
2023-02-22T20:39:46.679Z,19.90
2023-02-22T20:42:15.900Z,20.30
2023-02-22T20:44:45.488Z,19.00
2023-02-22T20:47:14.074Z,19.70
2023-02-22T20:49:42.234Z,21.10
2023-02-22T20:52:10.273Z,20.90
2023-02-22T20:54:38.763Z,21.10
2023-02-22T20:57:08.339Z,20.50
2023-02-22T20:59:36.898Z,19.20
2023-02-22T21:02:06.493Z,19.30
2023-02-22T21:04:35.308Z,18.60
2023-02-22T21:07:03.611Z,18.40
2023-02-22T21:09:35.268Z,17.60
2023-02-22T21:12:10.636Z,17.10
2023-02-22T21:14:40.374Z,16.30
2023-02-22T21:17:10.365Z,16.00
2023-02-22T21:19:38.591Z,17.30
2023-02-22T21:22:09.637Z,18.20
2023-02-22T21:24:41.094Z,18.10
2023-02-22T21:27:12.410Z,16.90
2023-02-22T21:29:41.002Z,17.80
2023-02-22T21:32:10.827Z,16.70
2023-02-22T21:34:39.604Z,18.00
2023-02-22T21:37:08.612Z,20.70
2023-02-22T21:39:36.796Z,18.90
2023-02-22T21:42:07.418Z,19.10
2023-02-22T21:44:35.481Z,19.50
2023-02-22T21:47:03.662Z,17.50
2023-02-22T21:49:31.854Z,19.80
2023-02-22T21:52:01.072Z,20.40
2023-02-22T21:54:30.433Z,21.20
2023-02-22T21:57:00.033Z,18.10
2023-02-22T21:59:28.211Z,18.30
2023-02-22T22:01:56.658Z,18.20
2023-02-22T22:04:28.630Z,17.80
2023-02-22T22:06:59.833Z,16.70
2023-02-22T22:09:33.486Z,17.70
2023-02-22T22:12:05.420Z,17.30
2023-02-22T22:14:35.359Z,17.90
2023-02-22T22:17:07.139Z,19.10
2023-02-22T22:19:39.514Z,20.20
2023-02-22T22:22:08.478Z,20.20
2023-02-22T22:24:37.628Z,20.30
2023-02-22T22:27:09.739Z,20.00
2023-02-22T22:29:37.992Z,20.50
2023-02-22T22:32:06.847Z,20.80
2023-02-22T22:34:38.139Z,21.60
2023-02-22T22:37:06.182Z,22.40
2023-02-22T22:39:34.330Z,22.40
2023-02-22T22:42:02.244Z,21.80
2023-02-22T22:44:33.048Z,22.30
2023-02-22T22:47:01.605Z,21.70
2023-02-22T22:49:31.519Z,21.10
2023-02-22T22:51:59.922Z,21.30
2023-02-22T22:54:29.090Z,20.50
2023-02-22T22:56:57.376Z,20.00
2023-02-22T22:59:27.969Z,18.80
2023-02-22T23:01:56.807Z,18.80
2023-02-22T23:04:26.236Z,16.90
2023-02-22T23:06:56.749Z,17.10
2023-02-22T23:09:31.701Z,16.60
2023-02-22T23:12:09.242Z,17.20
2023-02-22T23:14:44.295Z,16.00
2023-02-22T23:17:16.364Z,16.50
2023-02-22T23:19:45.380Z,16.90
2023-02-22T23:22:15.517Z,17.40
2023-02-22T23:24:44.954Z,18.60
2023-02-22T23:27:13.447Z,18.20
2023-02-22T23:29:46.863Z,17.30
2023-02-22T23:32:15.881Z,17.70
2023-02-22T23:34:44.723Z,19.10
2023-02-22T23:37:14.365Z,18.50
2023-02-22T23:39:42.549Z,18.20
2023-02-22T23:42:10.967Z,18.60
2023-02-22T23:44:40.653Z,19.30
2023-02-22T23:47:09.817Z,18.50
2023-02-22T23:49:38.925Z,18.10
2023-02-22T23:52:09.587Z,17.70
2023-02-22T23:54:44.219Z,18.30
2023-02-22T23:57:12.638Z,16.60
2023-02-22T23:59:41.000Z,16.30
